createdAt,value
2019-03-24T00:02:41.572Z,27.93
2019-03-24T00:05:47.549Z,26.97
2019-03-24T00:08:53.212Z,27.50
2019-03-24T00:11:59.071Z,27.90
2019-03-24T00:15:05.314Z,26.00
2019-03-24T00:18:10.991Z,28.33
2019-03-24T00:21:16.845Z,26.60
2019-03-24T00:24:22.544Z,25.53
2019-03-24T00:27:28.404Z,26.47
2019-03-24T00:30:34.094Z,28.23
2019-03-24T00:33:39.733Z,25.47
2019-03-24T00:36:45.381Z,25.63
2019-03-24T00:39:50.992Z,26.43
2019-03-24T00:42:56.665Z,27.17
2019-03-24T00:46:02.316Z,24.77
2019-03-24T00:49:08.017Z,27.80
2019-03-24T00:52:13.751Z,24.77
2019-03-24T00:55:19.489Z,26.50
2019-03-24T00:58:25.235Z,27.70
2019-03-24T01:01:30.896Z,24.37
2019-03-24T01:04:36.694Z,27.17
2019-03-24T01:07:42.452Z,27.07
2019-03-24T01:10:48.125Z,25.87
2019-03-24T01:13:53.819Z,27.87
2019-03-24T01:16:59.456Z,27.47
2019-03-24T01:20:05.553Z,26.10
2019-03-24T01:23:11.212Z,26.03
2019-03-24T01:26:16.932Z,26.00
2019-03-24T01:29:22.572Z,26.37
2019-03-24T01:32:28.244Z,26.63
2019-03-24T01:35:33.953Z,25.27
2019-03-24T01:38:39.679Z,26.07
2019-03-24T01:41:45.366Z,25.73
2019-03-24T01:44:51.082Z,24.00
2019-03-24T01:47:56.770Z,23.33
2019-03-24T01:51:02.453Z,24.97
2019-03-24T01:54:08.084Z,24.57
2019-03-24T01:57:13.814Z,25.77
2019-03-24T02:00:19.491Z,24.90
2019-03-24T02:03:25.143Z,25.73
2019-03-24T02:06:30.838Z,24.23
2019-03-24T02:09:36.511Z,23.37
2019-03-24T02:12:42.183Z,24.93
2019-03-24T02:15:47.888Z,24.80
2019-03-24T02:18:53.557Z,22.60
2019-03-24T02:21:59.242Z,25.87
2019-03-24T02:25:05.407Z,23.97
2019-03-24T02:28:11.106Z,24.47
2019-03-24T02:31:17.854Z,24.07
2019-03-24T02:34:23.739Z,26.37
2019-03-24T02:37:29.402Z,25.63
2019-03-24T02:40:35.116Z,24.30
2019-03-24T02:43:40.874Z,24.93
2019-03-24T02:46:46.615Z,27.43
2019-03-24T02:49:52.339Z,24.00
2019-03-24T02:52:58.082Z,25.27
2019-03-24T02:56:03.803Z,26.23
2019-03-24T02:59:09.516Z,25.50
2019-03-24T03:02:15.184Z,28.20
2019-03-24T03:05:20.909Z,25.20
2019-03-24T03:08:26.541Z,27.33
2019-03-24T03:11:32.272Z,26.67
2019-03-24T03:14:37.891Z,27.47
2019-03-24T03:17:43.631Z,24.93
2019-03-24T03:20:49.358Z,27.53
2019-03-24T03:23:55.042Z,24.23
2019-03-24T03:27:00.745Z,24.43
2019-03-24T03:30:07.576Z,25.10
2019-03-24T03:33:13.244Z,24.17
2019-03-24T03:36:18.944Z,23.50
2019-03-24T03:39:24.578Z,24.57
2019-03-24T03:42:30.531Z,23.90
2019-03-24T03:45:39.137Z,24.03
2019-03-24T03:48:43.527Z,24.67
2019-03-24T03:51:49.140Z,24.60
2019-03-24T03:54:54.853Z,24.87
2019-03-24T03:58:00.498Z,24.93
2019-03-24T04:01:06.201Z,22.60
2019-03-24T04:04:11.813Z,24.93
2019-03-24T04:07:17.583Z,24.73
2019-03-24T04:10:24.425Z,24.57
2019-03-24T04:13:30.137Z,23.60
2019-03-24T04:16:35.793Z,26.67
2019-03-24T04:19:41.470Z,24.80
2019-03-24T04:22:47.107Z,25.23
2019-03-24T04:25:52.773Z,26.30
2019-03-24T04:28:58.490Z,23.90
2019-03-24T04:32:04.136Z,25.67
2019-03-24T04:35:10.206Z,24.70
2019-03-24T04:38:15.906Z,23.73
2019-03-24T04:41:21.583Z,24.70
2019-03-24T04:44:27.283Z,24.83
2019-03-24T04:47:32.950Z,24.23
2019-03-24T04:50:38.654Z,26.60
2019-03-24T04:53:44.327Z,26.30
2019-03-24T04:56:50.011Z,26.27
2019-03-24T04:59:55.750Z,24.00
2019-03-24T05:03:01.430Z,25.97
2019-03-24T05:06:07.670Z,26.10
2019-03-24T05:09:13.380Z,25.27
2019-03-24T05:12:19.007Z,24.83
2019-03-24T05:15:24.767Z,24.37
2019-03-24T05:18:30.480Z,24.50
2019-03-24T05:21:36.191Z,24.97
2019-03-24T05:24:41.830Z,23.90
2019-03-24T05:27:47.526Z,23.90
2019-03-24T05:30:53.272Z,23.87
2019-03-24T05:33:58.983Z,23.67
2019-03-24T05:37:04.707Z,23.10
2019-03-24T05:40:10.559Z,23.43
2019-03-24T05:43:16.274Z,25.13
2019-03-24T05:46:21.947Z,22.70
2019-03-24T05:49:27.673Z,24.03
2019-03-24T05:52:33.382Z,22.80
2019-03-24T05:55:39.227Z,22.97
2019-03-24T05:58:44.926Z,25.37
2019-03-24T06:01:51.658Z,23.40
2019-03-24T06:04:57.375Z,22.97
2019-03-24T06:08:03.092Z,23.57
2019-03-24T06:11:08.871Z,23.30
2019-03-24T06:14:14.591Z,24.50
2019-03-24T06:17:20.277Z,25.90
2019-03-24T06:20:25.980Z,24.13
2019-03-24T06:23:31.709Z,24.77
2019-03-24T06:26:37.364Z,23.90
2019-03-24T06:29:43.027Z,23.60
2019-03-24T06:32:48.691Z,22.50
2019-03-24T06:35:54.431Z,23.37
2019-03-24T06:39:00.231Z,22.60
2019-03-24T06:42:05.901Z,23.63
2019-03-24T06:45:11.623Z,31.27
2019-03-24T06:48:17.455Z,24.97
2019-03-24T06:51:23.175Z,24.43
2019-03-24T06:54:28.923Z,23.13
2019-03-24T06:57:34.616Z,23.00
2019-03-24T07:00:40.251Z,22.83
2019-03-24T07:03:45.945Z,22.10
2019-03-24T07:06:51.628Z,20.80
2019-03-24T07:09:57.458Z,22.03
2019-03-24T07:13:03.175Z,22.17
2019-03-24T07:16:08.889Z,22.10
2019-03-24T07:19:14.715Z,23.43
2019-03-24T07:22:22.294Z,22.17
2019-03-24T07:25:27.939Z,21.67
2019-03-24T07:28:33.650Z,23.87
2019-03-24T07:31:39.358Z,22.00
2019-03-24T07:34:45.054Z,23.03
2019-03-24T07:37:50.759Z,22.37
2019-03-24T07:40:56.415Z,23.77
2019-03-24T07:44:02.113Z,21.90
2019-03-24T07:47:13.442Z,22.67
2019-03-24T07:50:19.133Z,22.10
2019-03-24T07:53:24.921Z,21.97
2019-03-24T07:56:30.722Z,20.90
2019-03-24T07:59:36.406Z,22.83
2019-03-24T08:02:51.478Z,26.67
2019-03-24T08:05:57.185Z,21.37
2019-03-24T08:09:04.373Z,32.90
2019-03-24T08:12:10.090Z,23.43
2019-03-24T08:15:15.828Z,21.47
2019-03-24T08:18:29.488Z,22.43
2019-03-24T08:21:29.005Z,23.00
2019-03-24T08:24:34.779Z,21.77
2019-03-24T08:27:40.558Z,22.13
2019-03-24T08:30:46.264Z,21.80
2019-03-24T08:33:51.887Z,22.40
2019-03-24T08:36:57.570Z,21.03
2019-03-24T08:40:03.302Z,21.47
2019-03-24T08:43:09.048Z,21.30
2019-03-24T08:46:16.387Z,21.73
2019-03-24T08:49:22.651Z,21.70
2019-03-24T08:52:28.912Z,20.10
2019-03-24T08:55:34.633Z,22.37
2019-03-24T08:58:40.324Z,22.13
2019-03-24T09:01:46.042Z,22.37
2019-03-24T09:04:51.802Z,21.37
2019-03-24T09:07:57.521Z,28.40
2019-03-24T09:11:03.195Z,21.60
2019-03-24T09:14:08.986Z,20.73
2019-03-24T09:17:14.670Z,22.60
2019-03-24T09:20:20.328Z,22.73
2019-03-24T09:23:26.016Z,22.17
2019-03-24T09:26:31.803Z,22.73
2019-03-24T09:29:37.540Z,22.57
2019-03-24T09:32:43.275Z,23.87
2019-03-24T09:35:48.954Z,24.23
2019-03-24T09:38:54.672Z,24.30
2019-03-24T09:42:00.377Z,23.87
2019-03-24T09:45:06.366Z,22.37
2019-03-24T09:48:12.067Z,23.67
2019-03-24T09:51:17.750Z,23.73
2019-03-24T09:54:23.432Z,24.67
2019-03-24T09:57:29.154Z,23.37
2019-03-24T10:00:34.805Z,25.10
2019-03-24T10:03:40.598Z,23.73
2019-03-24T10:06:46.266Z,23.77
2019-03-24T10:09:51.986Z,27.17
2019-03-24T10:12:57.649Z,26.60
2019-03-24T10:16:03.370Z,25.33
2019-03-24T10:19:13.853Z,24.97
2019-03-24T10:22:16.491Z,24.47
2019-03-24T10:25:22.265Z,26.23
2019-03-24T10:28:28.037Z,27.57
2019-03-24T10:31:33.736Z,26.03
2019-03-24T10:34:39.774Z,26.80
2019-03-24T10:37:45.447Z,27.27
2019-03-24T10:40:51.164Z,24.47
2019-03-24T10:43:56.915Z,27.23
2019-03-24T10:47:02.718Z,25.90
2019-03-24T10:50:10.675Z,25.37
2019-03-24T10:53:16.347Z,26.53
2019-03-24T10:56:22.563Z,25.50
2019-03-24T10:59:28.396Z,27.17
2019-03-24T11:02:34.116Z,25.90
2019-03-24T11:05:41.082Z,27.13
2019-03-24T11:08:46.833Z,26.67
2019-03-24T11:11:52.512Z,27.10
2019-03-24T11:14:58.237Z,26.50
2019-03-24T11:18:03.945Z,27.70
2019-03-24T11:21:09.595Z,29.03
2019-03-24T11:24:15.357Z,28.93
2019-03-24T11:27:21.052Z,30.03
2019-03-24T11:30:26.724Z,28.87
2019-03-24T11:33:32.456Z,27.33
2019-03-24T11:36:38.123Z,27.27
2019-03-24T11:39:44.754Z,27.67
2019-03-24T11:42:50.358Z,29.53
2019-03-24T11:45:56.071Z,29.03
2019-03-24T11:49:01.771Z,28.60
2019-03-24T11:52:07.564Z,29.43
2019-03-24T11:55:13.367Z,28.37
2019-03-24T11:58:19.171Z,29.37
2019-03-24T12:01:24.912Z,29.60
2019-03-24T12:04:30.660Z,28.03
2019-03-24T12:07:36.423Z,30.70
2019-03-24T12:10:42.101Z,28.50
2019-03-24T12:13:47.818Z,30.80
2019-03-24T12:16:53.496Z,29.60
2019-03-24T12:19:59.197Z,28.27
2019-03-24T12:23:04.933Z,28.73
2019-03-24T12:26:10.572Z,28.20
2019-03-24T12:29:16.285Z,29.83
2019-03-24T12:32:22.010Z,30.10
2019-03-24T12:35:27.701Z,29.93
2019-03-24T12:38:33.486Z,28.83
2019-03-24T12:41:39.185Z,29.77
2019-03-24T12:44:44.854Z,27.10
2019-03-24T12:47:50.588Z,27.83
2019-03-24T12:50:56.294Z,28.63
2019-03-24T12:54:02.046Z,29.37
2019-03-24T12:57:07.743Z,28.10
2019-03-24T13:00:13.947Z,28.20
2019-03-24T13:03:19.775Z,28.30
2019-03-24T13:06:25.570Z,27.60
2019-03-24T13:09:33.598Z,29.50
2019-03-24T13:12:38.790Z,28.13
2019-03-24T13:15:44.543Z,28.80
2019-03-24T13:18:50.316Z,27.83
2019-03-24T13:21:55.985Z,27.00
2019-03-24T13:25:01.824Z,28.07
2019-03-24T13:28:07.561Z,28.30
2019-03-24T13:31:13.309Z,26.93
2019-03-24T13:34:18.982Z,25.07
2019-03-24T13:37:24.626Z,23.93
2019-03-24T13:40:30.357Z,25.37
2019-03-24T13:43:36.053Z,25.70
2019-03-24T13:46:41.852Z,25.33
2019-03-24T13:49:47.584Z,25.23
2019-03-24T13:52:53.322Z,23.90
2019-03-24T13:55:59.001Z,23.63
2019-03-24T13:59:04.733Z,26.10
2019-03-24T14:02:10.807Z,25.53
2019-03-24T14:05:16.832Z,24.87
2019-03-24T14:08:22.523Z,24.77
2019-03-24T14:11:28.218Z,25.33
2019-03-24T14:14:33.982Z,25.53
2019-03-24T14:17:39.660Z,24.20
2019-03-24T14:20:45.468Z,24.97
2019-03-24T14:23:51.105Z,24.00
2019-03-24T14:26:56.911Z,23.03
2019-03-24T14:30:02.643Z,25.43
2019-03-24T14:33:08.447Z,23.50
2019-03-24T14:36:14.143Z,22.50
2019-03-24T14:39:19.830Z,23.07
2019-03-24T14:42:25.548Z,22.97
2019-03-24T14:45:31.290Z,23.83
2019-03-24T14:48:37.151Z,22.10
2019-03-24T14:51:42.884Z,22.40
2019-03-24T14:54:48.628Z,23.50
2019-03-24T14:57:54.304Z,22.10
2019-03-24T15:00:59.991Z,22.17
2019-03-24T15:04:05.775Z,22.60
2019-03-24T15:07:11.487Z,22.43
2019-03-24T15:10:18.209Z,22.83
2019-03-24T15:13:23.820Z,25.00
2019-03-24T15:16:29.678Z,38.63
2019-03-24T15:19:35.399Z,21.93
2019-03-24T15:22:41.137Z,25.47
2019-03-24T15:25:46.988Z,22.43
2019-03-24T15:28:52.727Z,22.07
2019-03-24T15:31:58.518Z,23.33
2019-03-24T15:35:04.460Z,21.50
2019-03-24T15:38:10.367Z,20.73
2019-03-24T15:41:18.298Z,20.97
2019-03-24T15:44:23.805Z,20.33
2019-03-24T15:47:29.537Z,20.73
2019-03-24T15:50:35.340Z,20.93
2019-03-24T15:53:41.086Z,19.57
2019-03-24T15:56:46.891Z,19.23
2019-03-24T15:59:52.602Z,18.80
2019-03-24T16:02:58.433Z,18.70
2019-03-24T16:06:04.131Z,18.00
2019-03-24T16:09:09.983Z,16.13
2019-03-24T16:12:15.738Z,14.97
2019-03-24T16:15:21.394Z,15.27
2019-03-24T16:18:27.227Z,13.87
2019-03-24T16:21:33.935Z,13.67
2019-03-24T16:24:39.713Z,12.37
2019-03-24T16:27:45.423Z,11.60
2019-03-24T16:30:51.122Z,11.93
2019-03-24T16:33:56.781Z,12.03
2019-03-24T16:37:02.586Z,11.83
2019-03-24T16:40:08.513Z,11.50
2019-03-24T16:43:14.393Z,12.53
2019-03-24T16:46:20.203Z,11.47
2019-03-24T16:49:25.975Z,10.57
2019-03-24T16:52:31.806Z,10.40
2019-03-24T16:55:37.526Z,11.60
2019-03-24T16:58:43.205Z,11.30
2019-03-24T17:01:48.895Z,11.30
2019-03-24T17:04:54.657Z,10.47
2019-03-24T17:08:00.393Z,11.00
2019-03-24T17:11:06.178Z,10.77
2019-03-24T17:14:11.885Z,10.17
2019-03-24T17:17:17.668Z,10.27
2019-03-24T17:20:23.394Z,9.83
2019-03-24T17:23:29.173Z,10.47
2019-03-24T17:26:34.970Z,9.57
2019-03-24T17:29:40.802Z,9.10
2019-03-24T17:32:46.531Z,9.73
2019-03-24T17:35:52.237Z,8.87
2019-03-24T17:38:58.238Z,9.60
2019-03-24T17:42:04.069Z,9.63
2019-03-24T17:45:10.635Z,10.00
2019-03-24T17:48:16.429Z,9.27
2019-03-24T17:51:22.171Z,9.67
2019-03-24T17:54:27.978Z,12.30
2019-03-24T17:57:33.729Z,8.80
2019-03-24T18:00:45.950Z,8.73
2019-03-24T18:03:51.655Z,8.33
2019-03-24T18:06:57.440Z,9.17
2019-03-24T18:10:03.108Z,9.07
2019-03-24T18:13:08.839Z,8.00
2019-03-24T18:16:14.609Z,9.10
2019-03-24T18:19:20.431Z,8.80
2019-03-24T18:22:26.215Z,7.13
2019-03-24T18:25:31.956Z,6.13
2019-03-24T18:28:37.628Z,7.33
2019-03-24T18:31:43.421Z,6.40
2019-03-24T18:34:49.293Z,7.60
2019-03-24T18:37:55.095Z,7.20
2019-03-24T18:41:00.809Z,7.30
2019-03-24T18:44:06.659Z,6.23
2019-03-24T18:47:12.393Z,6.20
2019-03-24T18:50:18.150Z,5.97
2019-03-24T18:53:26.009Z,5.93
2019-03-24T18:56:31.396Z,5.47
2019-03-24T18:59:37.067Z,7.33
2019-03-24T19:02:42.769Z,12.20
2019-03-24T19:05:49.823Z,6.47
2019-03-24T19:08:55.609Z,5.63
2019-03-24T19:12:01.320Z,4.40
2019-03-24T19:15:08.007Z,6.37
2019-03-24T19:18:13.684Z,5.03
2019-03-24T19:21:19.782Z,5.10
2019-03-24T19:24:25.519Z,6.07
2019-03-24T19:27:31.266Z,5.90
2019-03-24T19:30:45.909Z,10.43
2019-03-24T19:33:51.666Z,8.53
2019-03-24T19:36:58.433Z,13.20
2019-03-24T19:40:04.266Z,122.80
2019-03-24T19:43:09.978Z,13.53
2019-03-24T19:46:15.724Z,15.23
2019-03-24T19:49:21.496Z,5.63
2019-03-24T19:52:27.277Z,6.27
2019-03-24T19:55:33.105Z,8.33
2019-03-24T19:58:38.882Z,9.80
2019-03-24T20:01:44.665Z,7.33
2019-03-24T20:04:51.480Z,7.60
2019-03-24T20:07:57.415Z,7.73
2019-03-24T20:11:03.075Z,9.27
2019-03-24T20:14:08.864Z,8.43
2019-03-24T20:17:14.548Z,7.53
2019-03-24T20:20:20.334Z,8.43
2019-03-24T20:23:26.053Z,7.70
2019-03-24T20:26:31.765Z,13.70
2019-03-24T20:29:37.489Z,13.93
2019-03-24T20:32:43.258Z,11.03
2019-03-24T20:35:50.010Z,11.03
2019-03-24T20:38:55.844Z,11.33
2019-03-24T20:42:01.594Z,11.47
2019-03-24T20:45:07.649Z,11.03
2019-03-24T20:48:13.463Z,11.23
2019-03-24T20:51:19.238Z,11.70
2019-03-24T20:54:25.110Z,11.53
2019-03-24T20:57:30.817Z,12.30
2019-03-24T21:00:37.293Z,11.73
2019-03-24T21:03:43.086Z,12.07
2019-03-24T21:06:48.807Z,12.70
2019-03-24T21:09:54.641Z,13.03
2019-03-24T21:13:00.539Z,13.57
2019-03-24T21:16:06.267Z,13.73
2019-03-24T21:19:12.102Z,13.17
2019-03-24T21:22:17.931Z,12.70
2019-03-24T21:25:23.671Z,13.20
2019-03-24T21:28:29.411Z,12.30
2019-03-24T21:31:35.145Z,13.73
2019-03-24T21:34:40.850Z,14.37
2019-03-24T21:37:46.599Z,14.03
2019-03-24T21:40:52.354Z,12.53
2019-03-24T21:43:58.034Z,15.73
2019-03-24T21:47:03.903Z,14.57
2019-03-24T21:50:09.897Z,14.47
2019-03-24T21:53:15.681Z,11.30
2019-03-24T21:56:21.384Z,10.73
2019-03-24T21:59:27.126Z,10.23
2019-03-24T22:02:32.910Z,9.13
2019-03-24T22:05:38.701Z,8.83
2019-03-24T22:08:44.502Z,9.30
2019-03-24T22:11:50.216Z,9.70
2019-03-24T22:14:55.920Z,8.83
2019-03-24T22:18:01.751Z,8.97
2019-03-24T22:21:08.696Z,9.17
2019-03-24T22:24:14.451Z,8.57
2019-03-24T22:27:20.173Z,8.33
2019-03-24T22:30:25.905Z,8.80
2019-03-24T22:33:31.611Z,7.37
2019-03-24T22:36:37.343Z,7.50
2019-03-24T22:39:43.048Z,6.80
2019-03-24T22:42:48.718Z,7.43
2019-03-24T22:45:54.411Z,6.83
2019-03-24T22:49:00.078Z,6.87
2019-03-24T22:52:07.438Z,6.03
2019-03-24T22:55:13.595Z,6.27
2019-03-24T22:58:19.324Z,6.37
2019-03-24T23:01:26.260Z,6.00
2019-03-24T23:04:32.102Z,6.60
2019-03-24T23:07:37.811Z,6.37
2019-03-24T23:10:43.420Z,5.57
2019-03-24T23:13:49.165Z,5.97
2019-03-24T23:16:54.874Z,5.63
2019-03-24T23:20:00.605Z,5.80
2019-03-24T23:23:06.435Z,6.10
2019-03-24T23:26:12.147Z,5.33
2019-03-24T23:29:17.931Z,5.20
2019-03-24T23:32:23.584Z,5.70
2019-03-24T23:35:29.370Z,5.27
2019-03-24T23:38:35.169Z,4.83
2019-03-24T23:41:40.982Z,5.57
2019-03-24T23:44:46.717Z,4.67
2019-03-24T23:47:52.357Z,5.20
2019-03-24T23:50:58.021Z,4.93
2019-03-24T23:54:03.733Z,4.93
2019-03-24T23:57:09.372Z,5.50
